createdAt,value
2023-05-01T00:01:29.567Z,82.00
2023-05-01T00:03:56.918Z,81.40
2023-05-01T00:06:24.189Z,82.70
2023-05-01T00:08:51.218Z,82.90
2023-05-01T00:11:18.217Z,81.20
2023-05-01T00:13:45.212Z,81.90
2023-05-01T00:16:14.970Z,79.80
2023-05-01T00:18:42.038Z,80.50
2023-05-01T00:21:09.059Z,81.50
2023-05-01T00:23:36.249Z,82.00
2023-05-01T00:26:03.312Z,83.10
2023-05-01T00:28:30.259Z,81.20
2023-05-01T00:30:57.914Z,82.70
2023-05-01T00:33:24.936Z,82.60
2023-05-01T00:35:52.815Z,81.40
2023-05-01T00:38:19.816Z,81.10
2023-05-01T00:40:47.695Z,81.40
2023-05-01T00:43:14.731Z,81.50
2023-05-01T00:45:46.165Z,81.50
2023-05-01T00:48:14.915Z,82.60
2023-05-01T00:50:44.041Z,82.00
2023-05-01T00:53:12.585Z,81.90
2023-05-01T00:55:43.093Z,81.90
2023-05-01T00:58:12.327Z,82.20
2023-05-01T01:00:39.339Z,82.10
2023-05-01T01:03:06.617Z,82.30
2023-05-01T01:05:43.108Z,83.80
2023-05-01T01:08:31.332Z,82.60
2023-05-01T01:11:30.922Z,82.90
2023-05-01T01:14:21.084Z,83.30
2023-05-01T01:17:09.251Z,83.00
2023-05-01T01:19:49.304Z,83.30
2023-05-01T01:22:24.093Z,83.10
2023-05-01T01:24:57.815Z,83.00
2023-05-01T01:28:17.291Z,83.20
2023-05-01T01:31:10.941Z,83.80
2023-05-01T01:34:03.778Z,85.50
2023-05-01T01:36:40.945Z,83.70
2023-05-01T01:39:33.329Z,82.70
2023-05-01T01:42:01.338Z,83.80
2023-05-01T01:44:38.626Z,83.50
2023-05-01T01:47:12.238Z,84.20
2023-05-01T01:49:49.883Z,84.20
2023-05-01T01:52:20.349Z,84.20
2023-05-01T01:54:58.972Z,85.30
2023-05-01T01:57:28.023Z,83.80
2023-05-01T01:59:56.350Z,84.90
2023-05-01T02:02:27.269Z,84.50
2023-05-01T02:04:57.206Z,84.80
2023-05-01T02:07:26.812Z,85.90
2023-05-01T02:09:57.902Z,85.00
2023-05-01T02:12:27.101Z,85.80
2023-05-01T02:14:55.885Z,85.20
2023-05-01T02:17:24.291Z,85.30
2023-05-01T02:19:55.213Z,86.30
2023-05-01T02:22:25.961Z,87.20
2023-05-01T02:24:55.977Z,85.60
2023-05-01T02:27:38.214Z,85.80
2023-05-01T02:30:07.053Z,86.90
2023-05-01T02:32:34.396Z,85.70
2023-05-01T02:35:01.718Z,85.80
2023-05-01T02:37:30.797Z,86.40
2023-05-01T02:39:59.753Z,86.50
2023-05-01T02:42:28.662Z,87.70
2023-05-01T02:45:01.700Z,86.70
2023-05-01T02:47:34.872Z,88.40
2023-05-01T02:50:03.132Z,87.00
2023-05-01T02:52:31.658Z,87.30
2023-05-01T02:55:18.488Z,87.00
2023-05-01T02:57:45.917Z,87.20
2023-05-01T03:00:14.082Z,87.50
2023-05-01T03:02:42.343Z,87.40
2023-05-01T03:05:09.836Z,88.20
2023-05-01T03:07:37.053Z,87.50
2023-05-01T03:10:07.950Z,87.80
2023-05-01T03:12:35.703Z,88.10
2023-05-01T03:15:02.686Z,88.40
2023-05-01T03:17:31.103Z,88.80
2023-05-01T03:19:58.548Z,89.90
2023-05-01T03:22:29.809Z,88.80
2023-05-01T03:24:56.776Z,90.20
2023-05-01T03:27:23.755Z,88.80
2023-05-01T03:29:52.349Z,88.80
2023-05-01T03:32:19.662Z,90.00
2023-05-01T03:34:48.478Z,89.90
2023-05-01T03:37:16.585Z,89.20
2023-05-01T03:39:43.689Z,90.50
2023-05-01T03:42:29.092Z,89.70
2023-05-01T03:45:01.533Z,89.70
2023-05-01T03:47:29.810Z,90.60
2023-05-01T03:49:57.191Z,90.30
2023-05-01T03:52:24.564Z,91.10
2023-05-01T03:54:52.378Z,90.50
2023-05-01T03:57:27.464Z,90.30
2023-05-01T03:59:54.905Z,91.00
2023-05-01T04:02:22.285Z,91.30
2023-05-01T04:04:50.548Z,90.50
2023-05-01T04:07:17.906Z,91.50
2023-05-01T04:09:48.359Z,90.90
2023-05-01T04:12:15.293Z,90.80
2023-05-01T04:14:43.298Z,91.50
2023-05-01T04:17:11.519Z,91.30
2023-05-01T04:19:41.315Z,90.80
2023-05-01T04:22:08.361Z,90.90
2023-05-01T04:24:36.722Z,91.20
2023-05-01T04:27:04.740Z,91.50
2023-05-01T04:29:32.356Z,90.90
2023-05-01T04:31:59.493Z,90.90
2023-05-01T04:34:29.401Z,91.10
2023-05-01T04:36:57.372Z,91.10
2023-05-01T04:39:24.734Z,91.20
2023-05-01T04:41:51.956Z,92.10
2023-05-01T04:44:19.020Z,91.80
2023-05-01T04:46:46.860Z,92.10
2023-05-01T04:49:14.724Z,92.00
2023-05-01T04:51:41.953Z,92.00
2023-05-01T04:54:11.878Z,92.10
2023-05-01T04:56:39.991Z,92.30
2023-05-01T04:59:06.986Z,92.30
2023-05-01T05:01:34.445Z,92.70
2023-05-01T05:04:01.774Z,92.30
2023-05-01T05:06:29.801Z,92.90
2023-05-01T05:08:57.871Z,92.80
2023-05-01T05:11:26.603Z,92.70
2023-05-01T05:14:16.946Z,92.80
2023-05-01T05:16:44.138Z,92.90
2023-05-01T05:19:11.223Z,93.30
2023-05-01T05:21:41.801Z,93.00
2023-05-01T05:24:11.022Z,93.20
2023-05-01T05:26:38.267Z,93.70
2023-05-01T05:29:06.211Z,93.60
2023-05-01T05:31:33.231Z,93.20
2023-05-01T05:34:00.429Z,93.70
2023-05-01T05:36:27.889Z,93.50
2023-05-01T05:38:55.469Z,93.60
2023-05-01T05:41:22.911Z,93.30
2023-05-01T05:43:54.414Z,93.50
2023-05-01T05:46:21.614Z,93.90
2023-05-01T05:48:48.680Z,93.60
2023-05-01T05:51:15.944Z,93.60
2023-05-01T05:53:42.862Z,93.60
2023-05-01T05:56:10.521Z,93.40
2023-05-01T05:58:39.208Z,93.40
2023-05-01T06:01:09.632Z,93.30
2023-05-01T06:03:38.493Z,93.20
2023-05-01T06:06:06.236Z,93.40
2023-05-01T06:08:35.410Z,93.10
2023-05-01T06:11:03.912Z,93.50
2023-05-01T06:13:30.839Z,93.10
2023-05-01T06:15:58.337Z,93.00
2023-05-01T06:18:26.252Z,93.30
2023-05-01T06:20:54.441Z,93.30
2023-05-01T06:23:21.589Z,93.00
2023-05-01T06:26:10.135Z,92.90
2023-05-01T06:28:37.375Z,92.70
2023-05-01T06:31:05.450Z,92.90
2023-05-01T06:33:36.088Z,92.50
2023-05-01T06:36:14.102Z,92.40
2023-05-01T06:38:44.820Z,92.30
2023-05-01T06:41:11.889Z,92.30
2023-05-01T06:43:38.857Z,92.50
2023-05-01T06:46:05.972Z,92.10
2023-05-01T06:48:32.929Z,92.10
2023-05-01T06:50:59.929Z,92.10
2023-05-01T06:53:26.934Z,92.00
2023-05-01T06:55:54.051Z,92.00
2023-05-01T06:58:24.159Z,92.10
2023-05-01T07:00:54.357Z,92.10
2023-05-01T07:03:21.844Z,92.00
2023-05-01T07:05:49.038Z,91.60
2023-05-01T07:08:16.072Z,91.70
2023-05-01T07:10:43.642Z,91.60
2023-05-01T07:13:10.647Z,92.10
2023-05-01T07:15:37.932Z,91.20
2023-05-01T07:18:06.188Z,91.10
2023-05-01T07:20:35.042Z,90.80
2023-05-01T07:23:02.068Z,90.70
2023-05-01T07:25:30.015Z,91.50
2023-05-01T07:27:57.071Z,90.40
2023-05-01T07:30:24.163Z,90.00
2023-05-01T07:32:51.299Z,89.80
2023-05-01T07:35:18.308Z,89.40
2023-05-01T07:37:45.361Z,90.00
2023-05-01T07:40:12.443Z,89.80
2023-05-01T07:42:39.459Z,88.10
2023-05-01T07:45:08.057Z,87.40
2023-05-01T07:47:35.309Z,86.90
2023-05-01T07:50:03.896Z,86.40
2023-05-01T07:52:30.980Z,86.10
2023-05-01T07:54:58.008Z,85.20
2023-05-01T07:57:25.208Z,84.40
2023-05-01T07:59:56.838Z,83.40
2023-05-01T08:02:24.808Z,82.80
2023-05-01T08:04:53.228Z,84.90
2023-05-01T08:07:22.749Z,82.80
2023-05-01T08:09:49.707Z,82.50
2023-05-01T08:12:16.716Z,80.80
2023-05-01T08:14:43.811Z,81.70
2023-05-01T08:17:10.794Z,81.50
2023-05-01T08:19:37.743Z,81.00
2023-05-01T08:22:04.667Z,80.10
2023-05-01T08:24:31.620Z,79.90
2023-05-01T08:26:58.728Z,79.60
2023-05-01T08:29:25.797Z,79.70
2023-05-01T08:31:52.793Z,79.70
2023-05-01T08:34:19.870Z,79.90
2023-05-01T08:36:46.884Z,80.00
2023-05-01T08:39:15.237Z,79.90
2023-05-01T08:41:47.385Z,79.70
2023-05-01T08:44:18.734Z,79.60
2023-05-01T08:47:07.344Z,78.70
2023-05-01T08:49:36.504Z,77.40
2023-05-01T08:52:06.383Z,77.70
2023-05-01T08:54:35.101Z,77.80
2023-05-01T08:57:04.502Z,76.40
2023-05-01T08:59:35.953Z,75.80
2023-05-01T09:02:06.813Z,76.10
2023-05-01T09:04:40.542Z,76.40
2023-05-01T09:07:09.740Z,76.10
2023-05-01T09:09:37.113Z,76.30
2023-05-01T09:12:25.303Z,76.10
2023-05-01T09:14:57.067Z,75.00
2023-05-01T09:17:24.880Z,75.20
2023-05-01T09:19:53.184Z,75.20
2023-05-01T09:22:21.421Z,74.60
2023-05-01T09:24:48.718Z,73.70
2023-05-01T09:27:16.271Z,72.50
2023-05-01T09:29:46.616Z,71.50
2023-05-01T09:32:21.481Z,71.00
2023-05-01T09:34:50.494Z,70.70
2023-05-01T09:37:33.035Z,71.00
2023-05-01T09:40:12.012Z,69.50
2023-05-01T09:42:51.494Z,69.90
2023-05-01T09:45:19.971Z,70.10
2023-05-01T09:47:47.790Z,70.00
2023-05-01T09:50:33.187Z,69.10
2023-05-01T09:53:06.414Z,67.70
2023-05-01T09:55:34.783Z,67.70
2023-05-01T09:58:02.226Z,66.50
2023-05-01T10:00:30.922Z,66.80
2023-05-01T10:02:58.441Z,66.10
2023-05-01T10:05:26.288Z,66.60
2023-05-01T10:07:57.371Z,66.00
2023-05-01T10:10:24.572Z,65.00
2023-05-01T10:12:52.089Z,65.60
2023-05-01T10:15:26.702Z,65.20
2023-05-01T10:17:55.612Z,64.60
2023-05-01T10:20:22.845Z,65.50
2023-05-01T10:22:49.996Z,64.60
2023-05-01T10:25:18.195Z,63.90
2023-05-01T10:27:45.675Z,64.10
2023-05-01T10:30:12.837Z,63.10
2023-05-01T10:32:42.436Z,63.20
2023-05-01T10:35:20.005Z,63.50
2023-05-01T10:37:51.614Z,63.00
2023-05-01T10:40:49.017Z,64.50
2023-05-01T10:43:27.847Z,63.80
2023-05-01T10:46:10.145Z,64.20
2023-05-01T10:48:43.805Z,64.00
2023-05-01T10:51:27.812Z,64.00
2023-05-01T10:54:16.608Z,63.40
2023-05-01T10:56:44.244Z,63.30
2023-05-01T10:59:13.278Z,63.80
2023-05-01T11:01:43.258Z,63.70
2023-05-01T11:04:22.313Z,64.00
2023-05-01T11:07:08.608Z,63.40
2023-05-01T11:09:41.732Z,63.40
2023-05-01T11:12:11.751Z,64.00
2023-05-01T11:14:54.320Z,64.50
2023-05-01T11:17:39.936Z,63.90
2023-05-01T11:20:08.467Z,64.40
2023-05-01T11:22:37.663Z,63.80
2023-05-01T11:25:22.705Z,64.00
2023-05-01T11:27:56.733Z,64.10
2023-05-01T11:30:24.266Z,64.10
2023-05-01T11:32:52.526Z,64.10
2023-05-01T11:35:29.322Z,64.30
2023-05-01T11:37:56.555Z,64.90
2023-05-01T11:40:26.009Z,65.40
2023-05-01T11:43:05.256Z,65.70
2023-05-01T11:45:34.190Z,66.10
2023-05-01T11:48:04.602Z,65.10
2023-05-01T11:50:35.596Z,64.60
2023-05-01T11:53:17.258Z,63.80
2023-05-01T11:55:45.144Z,63.80
2023-05-01T11:58:12.834Z,62.60
2023-05-01T12:00:44.023Z,60.20
2023-05-01T12:03:15.712Z,60.70
2023-05-01T12:05:45.487Z,59.30
2023-05-01T12:08:18.880Z,59.10
2023-05-01T12:10:57.471Z,58.50
2023-05-01T12:13:26.957Z,58.00
2023-05-01T12:15:56.019Z,58.40
2023-05-01T12:18:23.577Z,59.20
2023-05-01T12:20:54.302Z,59.10
2023-05-01T12:23:36.016Z,59.60
2023-05-01T12:26:21.354Z,58.80
2023-05-01T12:29:00.802Z,58.80
2023-05-01T12:31:29.734Z,59.20
2023-05-01T12:34:06.825Z,59.50
2023-05-01T12:36:36.476Z,59.50
2023-05-01T12:39:09.668Z,59.40
2023-05-01T12:41:49.379Z,59.40
2023-05-01T12:44:27.364Z,59.40
2023-05-01T12:47:07.962Z,60.00
2023-05-01T12:49:37.496Z,59.90
2023-05-01T12:52:07.962Z,59.30
2023-05-01T12:54:43.196Z,58.80
2023-05-01T12:57:12.247Z,58.40
2023-05-01T12:59:41.733Z,58.10
2023-05-01T13:02:16.021Z,58.10
2023-05-01T13:04:49.221Z,57.80
2023-05-01T13:07:19.352Z,57.60
2023-05-01T13:09:59.187Z,58.70
2023-05-01T13:12:28.563Z,59.00
2023-05-01T13:14:56.446Z,59.20
2023-05-01T13:17:32.695Z,59.30
2023-05-01T13:20:05.433Z,59.20
2023-05-01T13:22:36.141Z,58.90
2023-05-01T13:25:22.496Z,58.60
2023-05-01T13:27:53.752Z,58.80
2023-05-01T13:30:32.824Z,58.50
2023-05-01T13:33:00.848Z,58.10
2023-05-01T13:35:28.244Z,55.50
2023-05-01T13:37:55.724Z,55.90
2023-05-01T13:40:26.241Z,55.50
2023-05-01T13:42:54.242Z,55.90
2023-05-01T13:45:21.665Z,55.60
2023-05-01T13:47:52.182Z,55.80
2023-05-01T13:50:19.597Z,56.70
2023-05-01T13:52:47.504Z,57.10
2023-05-01T13:55:17.635Z,57.20
2023-05-01T13:57:45.050Z,57.60
2023-05-01T14:00:17.717Z,57.30
2023-05-01T14:02:48.646Z,58.70
2023-05-01T14:05:23.610Z,56.90
2023-05-01T14:07:56.877Z,56.90
2023-05-01T14:10:27.958Z,56.70
2023-05-01T14:12:59.365Z,57.60
2023-05-01T14:15:28.862Z,57.10
2023-05-01T14:17:55.925Z,56.90
2023-05-01T14:20:25.880Z,56.80
2023-05-01T14:22:53.775Z,56.20
2023-05-01T14:25:28.755Z,56.60
2023-05-01T14:28:04.025Z,57.10
2023-05-01T14:30:38.367Z,56.10
2023-05-01T14:33:12.986Z,56.40
2023-05-01T14:35:54.117Z,57.30
2023-05-01T14:38:22.623Z,56.60
2023-05-01T14:40:50.794Z,55.60
2023-05-01T14:43:21.759Z,55.00
2023-05-01T14:45:52.705Z,54.80
2023-05-01T14:48:33.279Z,54.20
2023-05-01T14:51:00.926Z,53.40
2023-05-01T14:53:33.071Z,53.60
2023-05-01T14:56:00.521Z,53.70
2023-05-01T14:58:27.511Z,54.00
2023-05-01T15:00:55.183Z,53.90
2023-05-01T15:03:22.287Z,54.00
2023-05-01T15:05:49.412Z,54.70
2023-05-01T15:08:16.786Z,54.90
2023-05-01T15:10:45.193Z,55.40
2023-05-01T15:13:12.625Z,56.10
2023-05-01T15:15:39.791Z,56.60
2023-05-01T15:18:07.503Z,56.60
2023-05-01T15:20:35.999Z,57.20
2023-05-01T15:23:02.988Z,57.00
2023-05-01T15:25:30.073Z,56.20
2023-05-01T15:27:57.219Z,55.30
2023-05-01T15:30:25.285Z,55.20
2023-05-01T15:32:53.948Z,55.50
2023-05-01T15:35:21.697Z,55.90
2023-05-01T15:37:48.820Z,56.50
2023-05-01T15:40:16.883Z,56.10
2023-05-01T15:42:48.075Z,56.30
2023-05-01T15:45:15.489Z,56.00
2023-05-01T15:47:42.600Z,54.50
2023-05-01T15:50:12.027Z,55.40
2023-05-01T15:52:39.761Z,55.50
2023-05-01T15:55:07.398Z,55.30
2023-05-01T15:57:35.137Z,55.40
2023-05-01T16:00:03.736Z,55.70
2023-05-01T16:02:32.954Z,56.30
2023-05-01T16:05:00.341Z,56.00
2023-05-01T16:07:29.668Z,55.60
2023-05-01T16:09:58.198Z,55.60
2023-05-01T16:12:28.089Z,55.80
2023-05-01T16:14:55.493Z,56.10
2023-05-01T16:17:22.888Z,55.60
2023-05-01T16:19:49.920Z,55.50
2023-05-01T16:22:17.319Z,55.50
2023-05-01T16:24:44.554Z,55.80
2023-05-01T16:27:14.073Z,56.20
2023-05-01T16:29:41.148Z,57.30
2023-05-01T16:32:11.310Z,56.90
2023-05-01T16:34:40.274Z,57.70
2023-05-01T16:37:07.467Z,58.90
2023-05-01T16:39:38.467Z,59.10
2023-05-01T16:42:06.872Z,61.00
2023-05-01T16:44:36.697Z,60.90
2023-05-01T16:47:06.333Z,62.70
2023-05-01T16:49:33.623Z,63.80
2023-05-01T16:52:03.296Z,63.90
2023-05-01T16:54:35.866Z,65.20
2023-05-01T16:57:03.519Z,65.50
2023-05-01T16:59:31.342Z,66.50
2023-05-01T17:01:58.330Z,67.50
2023-05-01T17:04:25.725Z,68.50
2023-05-01T17:06:52.997Z,68.10
2023-05-01T17:09:20.705Z,69.20
2023-05-01T17:11:59.026Z,68.80
2023-05-01T17:14:28.653Z,68.90
2023-05-01T17:16:56.240Z,70.00
2023-05-01T17:19:23.421Z,69.50
2023-05-01T17:21:50.673Z,69.50
2023-05-01T17:24:17.653Z,70.20
2023-05-01T17:26:44.582Z,70.50
2023-05-01T17:29:11.517Z,70.50
2023-05-01T17:31:38.541Z,71.10
2023-05-01T17:34:05.648Z,71.90
2023-05-01T17:36:32.636Z,71.60
2023-05-01T17:39:01.379Z,72.70
2023-05-01T17:41:28.422Z,73.40
2023-05-01T17:43:56.176Z,73.70
2023-05-01T17:46:23.249Z,71.50
2023-05-01T17:48:54.496Z,73.30
2023-05-01T17:51:21.896Z,74.20
2023-05-01T17:53:48.833Z,73.00
2023-05-01T17:56:16.993Z,73.40
2023-05-01T17:58:44.048Z,74.70
2023-05-01T18:01:11.074Z,74.60
2023-05-01T18:03:39.093Z,75.70
2023-05-01T18:06:06.560Z,75.30
2023-05-01T18:08:33.981Z,75.20
2023-05-01T18:11:01.713Z,76.50
2023-05-01T18:13:29.965Z,76.70
2023-05-01T18:15:57.307Z,77.50
2023-05-01T18:18:24.642Z,78.40
2023-05-01T18:20:51.774Z,78.70
2023-05-01T18:23:19.059Z,80.10
2023-05-01T18:25:46.570Z,80.70
2023-05-01T18:28:18.905Z,79.20
2023-05-01T18:30:46.288Z,80.10
2023-05-01T18:33:13.688Z,80.20
2023-05-01T18:35:43.044Z,80.20
2023-05-01T18:38:13.313Z,82.00
2023-05-01T18:40:40.965Z,81.90
2023-05-01T18:43:08.274Z,82.60
2023-05-01T18:45:35.508Z,81.80
2023-05-01T18:48:06.679Z,82.30
2023-05-01T18:50:34.209Z,81.00
2023-05-01T18:53:03.524Z,81.90
2023-05-01T18:55:31.215Z,82.60
2023-05-01T18:57:58.322Z,82.70
2023-05-01T19:00:26.714Z,82.70
2023-05-01T19:02:58.550Z,82.80
2023-05-01T19:05:26.118Z,84.10
2023-05-01T19:08:00.928Z,84.10
2023-05-01T19:10:29.156Z,85.00
2023-05-01T19:12:57.286Z,84.30
2023-05-01T19:15:24.753Z,84.50
2023-05-01T19:17:51.799Z,84.20
2023-05-01T19:20:19.382Z,84.90
2023-05-01T19:22:46.439Z,85.40
2023-05-01T19:25:14.576Z,84.80
2023-05-01T19:27:44.686Z,85.00
2023-05-01T19:30:12.116Z,86.40
2023-05-01T19:32:39.506Z,86.80
2023-05-01T19:35:13.941Z,89.20
2023-05-01T19:37:41.209Z,87.10
2023-05-01T19:40:08.863Z,87.40
2023-05-01T19:42:36.552Z,86.80
2023-05-01T19:45:04.370Z,88.70
2023-05-01T19:47:33.022Z,87.50
2023-05-01T19:50:00.396Z,88.90
2023-05-01T19:52:27.647Z,88.70
2023-05-01T19:54:54.621Z,89.80
2023-05-01T19:57:22.136Z,90.10
2023-05-01T19:59:49.071Z,90.00
2023-05-01T20:02:16.313Z,90.40
2023-05-01T20:04:43.271Z,90.50
2023-05-01T20:07:10.222Z,90.10
2023-05-01T20:09:37.107Z,90.70
2023-05-01T20:12:04.332Z,90.20
2023-05-01T20:14:33.523Z,90.20
2023-05-01T20:17:02.743Z,90.60
2023-05-01T20:19:31.662Z,90.70
2023-05-01T20:21:58.908Z,90.40
2023-05-01T20:24:26.279Z,90.60
2023-05-01T20:26:56.297Z,90.80
2023-05-01T20:29:23.243Z,91.40
2023-05-01T20:31:51.558Z,90.60
2023-05-01T20:34:19.870Z,90.80
2023-05-01T20:36:47.404Z,91.00
2023-05-01T20:39:14.485Z,92.00
2023-05-01T20:41:41.531Z,91.90
2023-05-01T20:44:09.063Z,91.40
2023-05-01T20:46:36.394Z,92.40
2023-05-01T20:49:06.092Z,92.20
2023-05-01T20:51:33.142Z,92.40
2023-05-01T20:54:00.117Z,92.50
2023-05-01T20:56:27.152Z,92.30
2023-05-01T20:58:54.463Z,93.30
2023-05-01T21:01:21.849Z,93.40
2023-05-01T21:03:48.862Z,92.70
2023-05-01T21:06:16.068Z,93.80
2023-05-01T21:08:43.135Z,93.40
2023-05-01T21:11:10.573Z,94.30
2023-05-01T21:13:37.696Z,93.30
2023-05-01T21:16:09.666Z,93.30
2023-05-01T21:18:36.706Z,93.60
2023-05-01T21:21:03.819Z,93.60
2023-05-01T21:23:30.995Z,93.50
2023-05-01T21:25:58.038Z,92.90
2023-05-01T21:28:25.127Z,93.80
2023-05-01T21:30:53.170Z,94.00
2023-05-01T21:33:20.399Z,94.20
2023-05-01T21:35:48.208Z,93.90
2023-05-01T21:38:16.265Z,94.00
2023-05-01T21:40:46.158Z,93.70
2023-05-01T21:43:13.389Z,94.20
2023-05-01T21:45:44.371Z,93.70
2023-05-01T21:48:15.757Z,94.70
2023-05-01T21:50:43.306Z,94.40
2023-05-01T21:53:10.334Z,94.20
2023-05-01T21:55:38.711Z,94.70
2023-05-01T21:58:06.795Z,95.20
2023-05-01T22:00:34.111Z,95.10
2023-05-01T22:03:07.178Z,95.70
2023-05-01T22:05:34.965Z,96.00
2023-05-01T22:08:02.040Z,96.40
2023-05-01T22:10:30.345Z,95.70
2023-05-01T22:12:57.595Z,95.90
2023-05-01T22:15:24.928Z,95.90
2023-05-01T22:17:52.237Z,96.20
2023-05-01T22:20:19.187Z,96.40
2023-05-01T22:22:46.470Z,96.70
2023-05-01T22:25:13.503Z,95.90
2023-05-01T22:27:40.909Z,96.70
2023-05-01T22:30:09.198Z,97.00
2023-05-01T22:32:37.548Z,97.30
2023-05-01T22:35:05.287Z,97.10
2023-05-01T22:37:32.227Z,97.00
2023-05-01T22:39:59.676Z,97.30
2023-05-01T22:42:26.995Z,97.80
2023-05-01T22:44:53.875Z,98.70
2023-05-01T22:47:20.940Z,98.80
2023-05-01T22:49:47.987Z,98.40
2023-05-01T22:52:15.467Z,98.60
2023-05-01T22:54:42.440Z,98.50
2023-05-01T22:57:10.328Z,98.10
2023-05-01T22:59:39.536Z,98.20
2023-05-01T23:02:06.615Z,98.30
2023-05-01T23:04:33.602Z,99.00
2023-05-01T23:07:00.683Z,98.80
2023-05-01T23:09:30.716Z,99.10
2023-05-01T23:11:57.694Z,98.80
2023-05-01T23:14:25.766Z,99.30
2023-05-01T23:16:55.351Z,98.80
2023-05-01T23:19:24.899Z,98.80
2023-05-01T23:22:07.017Z,99.10
2023-05-01T23:24:48.207Z,99.00
2023-05-01T23:27:20.062Z,99.90
2023-05-01T23:29:58.754Z,99.60
2023-05-01T23:32:30.406Z,99.90
2023-05-01T23:35:12.531Z,99.40
2023-05-01T23:37:39.553Z,99.60
2023-05-01T23:40:08.516Z,99.70
2023-05-01T23:42:37.686Z,99.40
2023-05-01T23:45:09.493Z,99.90
2023-05-01T23:47:38.760Z,99.80
2023-05-01T23:50:07.454Z,99.40
2023-05-01T23:52:34.811Z,99.30
2023-05-01T23:55:01.926Z,99.70
2023-05-01T23:57:55.294Z,99.30
